Markham, TX (77456)

1:16 PM CST on November 26, 2014 (GMT -0600)
Moccasin Farms | Change Station
CLOSE
Current Station
Personal Weather Station
Location: Ganado, TX
Elevation: 56 ft
Nearby Weather Stations

Elev 56 ft 28.94 °N, 96.34 °W | Updated 57 minutes ago

Clear
Clear
68.4 °F
Feels Like 68.4 °F
N
13.4
Wind Variable Wind from WSW
Gusts 15.0 mph

Today
High -- | Low -- °F
--% Chance of Precip.
Yesterday
High -- | Low -- °F
Precip. -- in
6:56 AM 5:26 PM
Waxing Crescent, 22% visible
Pressure 30.23 in
Visibility 10.0 miles
Clouds Clear
Dew Point 40 °F
Humidity 35%
Rainfall 0.00 in
Snow Depth Not available.
UV 5 out of 12
Pollen 4.10 out of 12
Air Quality Not available.
Flu Activity Not available.
METAR KPSX 261853Z AUTO 23016G20KT 10SM CLR 20/04 A3023 RMK AO2 SLP236 T02000044

More Conditions Fewer Conditions

Pressure 30.23 in
Visibility 10.0 miles
Clouds Clear
Dew Point 40 °F
Humidity 35%
Rainfall 0.00 in
Snow Depth Not available.
UV 5 out of 12
Pollen 4.10 out of 12
Air Quality Not available.
Flu Activity Not available.
METAR KPSX 261853Z AUTO 23016G20KT 10SM CLR 20/04 A3023 RMK AO2 SLP236 T02000044

More Conditions Fewer Conditions

10-Day Weather Forecast

Almanac

Astronomy

Nov. 26, 2014 Rise Set
Actual Time
Civil Twilight
Nautical Twilight
Astronomical Twilight
Moon
Length of Visible Light
Length of Day
Tomorrow will be .
, % of the Moon is Illuminated

Today's Extremes

State Highs State Lows

Community

WunderPhotos

Upload Photos

1,773,832 photos uploaded!

WunderBlogs® & News

Nearby

Air Quality

  Air Quality AQ Index Pollutant
Not available.

Snow Depth

Station Depth Elevation

Earthquake Activity

City Distance Mag. Time & Date
Minimum magnitude displayed is 2.5.

Coastal Water Temperatures

Place Temperature

Nearby Weather Stations